Time;durP1;ratioP1;P1;durP2;ratioP2;P2;SDS_P1;SDS_P2;PMS_P1;PMS_P2;Temp;Humidity;BMP_temperature;BMP_pressure;BME280_temperature;BME280_humidity;BME280_pressure;Samples;Min_cycle;Max_cycle;Signal;HPM_P1;HPM_P2
2024/03/01 00:02:00;;;;;;;;;;;;;;;4.47;100.00;100090.31;4973885;28;934;-50
2024/03/01 00:04:26;;;;;;;;;;;;;;;4.52;100.00;100087.28;4973816;28;843;-51
2024/03/01 00:09:56;;;;;;;;;;;;;;;4.61;100.00;100096.13;4973713;28;841;-49
2024/03/01 00:12:22;;;;;;;;;;;;;;;4.59;100.00;100079.25;4973676;28;875;-50
2024/03/01 00:14:52;;;;;;;;;;;;;;;4.58;100.00;100077.66;4972724;28;932;-50
2024/03/01 00:17:21;;;;;;;;;;;;;;;4.54;100.00;100065.84;4973487;28;1894;-49
2024/03/01 00:19:47;;;;;;;;;;;;;;;4.50;100.00;100060.28;4973906;28;1180;-49
2024/03/01 00:22:18;;;;;;;;;;;;;;;4.49;100.00;100068.84;4973973;28;851;-49
2024/03/01 00:24:48;;;;;;;;;;;;;;;4.49;100.00;100074.31;4973465;28;951;-50
2024/03/01 00:27:15;;;;;;;;;;;;;;;4.48;100.00;100078.19;4973690;28;836;-50
2024/03/01 00:29:41;;;;;;;;;;;;;;;4.45;100.00;100076.19;4973541;28;934;-50
2024/03/01 00:32:08;;;;;;;;;;;;;;;4.40;100.00;100079.19;4973330;28;831;-51
2024/03/01 00:34:34;;;;;;;;;;;;;;;4.36;100.00;100081.84;4973467;28;963;-50
2024/03/01 00:37:10;;;;;;;;;;;;;;;4.32;100.00;100071.94;4973219;28;1911;-50
2024/03/01 00:39:36;;;;;;;;;;;;;;;4.21;100.00;100047.84;4973304;28;862;-51
2024/03/01 00:42:12;;;;;;;;;;;;;;;4.21;100.00;100058.81;4973234;28;835;-50
2024/03/01 00:44:39;;;;;;;;;;;;;;;4.22;100.00;100071.31;4973445;28;882;-51
2024/03/01 00:47:06;;;;;;;;;;;;;;;4.26;100.00;100055.78;4972316;28;976;-50
2024/03/01 00:49:35;;;;;;;;;;;;;;;4.29;100.00;100057.84;4973301;28;1433;-50
2024/03/01 00:52:02;;;;;;;;;;;;;;;4.30;100.00;100053.94;4973270;28;874;-52
2024/03/01 00:54:27;;;;;;;;;;;;;;;4.33;100.00;100046.94;4973145;28;825;-52
2024/03/01 00:56:56;;;;;;;;;;;;;;;4.42;100.00;100058.53;4973245;28;1922;-51
2024/03/01 00:59:23;;;;;;;;;;;;;;;4.48;100.00;100053.56;4973240;28;935;-54
2024/03/01 01:01:50;;;;;;;;;;;;;;;4.53;100.00;100047.03;4973275;28;860;-52
2024/03/01 01:04:15;;;;;;;;;;;;;;;4.54;100.00;100038.47;4973098;28;882;-52
2024/03/01 01:06:42;;;;;;;;;;;;;;;4.55;100.00;100026.38;4973576;28;890;-53
2024/03/01 01:09:08;;;;;;;;;;;;;;;4.47;100.00;100025.41;4973366;28;1234;-53
2024/03/01 01:11:35;;;;;;;;;;;;;;;4.44;100.00;100030.81;4972976;28;1256;-53
2024/03/01 01:14:01;;;;;;;;;;;;;;;4.44;100.00;100036.28;4972853;28;1340;-50
2024/03/01 01:16:28;;;;;;;;;;;;;;;4.48;100.00;100032.47;4972787;28;1959;-51
2024/03/01 01:18:55;;;;;;;;;;;;;;;4.48;100.00;100028.94;4972952;28;821;-50
2024/03/01 01:21:22;;;;;;;;;;;;;;;4.44;100.00;100026.13;4972754;28;947;-52
2024/03/01 01:23:49;;;;;;;;;;;;;;;4.41;100.00;100031.50;4972942;28;855;-50
2024/03/01 01:26:15;;;;;;;;;;;;;;;4.41;100.00;100020.56;4976006;28;906;-50
2024/03/01 01:28:42;;;;;;;;;;;;;;;4.40;100.00;100019.78;4976894;28;874;-50
2024/03/01 01:31:09;;;;;;;;;;;;;;;4.42;100.00;100019.44;4976488;28;879;-50
2024/03/01 01:33:35;;;;;;;;;;;;;;;4.54;100.00;100013.81;4976615;28;879;-50
2024/03/01 01:36:02;;;;;;;;;;;;;;;4.65;100.00;100020.34;4976478;28;1898;-51
2024/03/01 01:38:29;;;;;;;;;;;;;;;4.65;100.00;100006.66;4976445;28;929;-49
2024/03/01 01:40:55;;;;;;;;;;;;;;;4.64;100.00;99996.06;4976452;28;927;-49
2024/03/01 01:43:22;;;;;;;;;;;;;;;4.62;100.00;99993.66;4976441;28;863;-49
2024/03/01 01:45:48;;;;;;;;;;;;;;;4.64;100.00;99988.63;4976499;28;950;-50
2024/03/01 01:48:15;;;;;;;;;;;;;;;4.69;100.00;99993.03;4976102;28;1605;-50
2024/03/01 01:50:42;;;;;;;;;;;;;;;4.70;100.00;99983.69;4959254;28;831;-49
2024/03/01 01:53:09;;;;;;;;;;;;;;;4.72;100.00;99983.31;4976296;28;835;-49
2024/03/01 01:55:35;;;;;;;;;;;;;;;4.74;100.00;99976.34;4976186;28;881;-49
2024/03/01 01:58:02;;;;;;;;;;;;;;;4.77;100.00;99972.88;4976051;28;1918;-51
2024/03/01 02:00:29;;;;;;;;;;;;;;;4.82;100.00;99974.53;4976414;28;867;-50
2024/03/01 02:02:55;;;;;;;;;;;;;;;4.81;100.00;99965.53;4976274;28;840;-50
2024/03/01 02:05:25;;;;;;;;;;;;;;;4.79;100.00;99965.09;4976135;28;799;-50
2024/03/01 02:07:52;;;;;;;;;;;;;;;4.75;100.00;99964.22;4975932;28;908;-49
2024/03/01 02:10:19;;;;;;;;;;;;;;;4.70;100.00;99964.50;4975915;28;804;-51
2024/03/01 02:12:52;;;;;;;;;;;;;;;4.66;100.00;99963.63;4975898;28;799;-51
2024/03/01 02:15:18;;;;;;;;;;;;;;;4.63;100.00;99964.34;4976061;28;839;-54
2024/03/01 02:17:45;;;;;;;;;;;;;;;4.56;100.00;99962.25;4975967;28;1945;-51
2024/03/01 02:20:12;;;;;;;;;;;;;;;4.47;100.00;99945.25;4976022;28;819;-50
2024/03/01 02:22:39;;;;;;;;;;;;;;;4.40;100.00;99947.81;4958811;28;1335;-50
2024/03/01 02:25:05;;;;;;;;;;;;;;;4.36;100.00;99949.69;4975720;28;1289;-49
2024/03/01 02:27:32;;;;;;;;;;;;;;;4.33;100.00;99942.97;4975756;28;894;-50
2024/03/01 02:29:58;;;;;;;;;;;;;;;4.29;100.00;99937.44;4975606;28;1289;-50
2024/03/01 02:32:25;;;;;;;;;;;;;;;4.29;100.00;99942.91;4975510;28;832;-50
2024/03/01 02:34:51;;;;;;;;;;;;;;;4.28;100.00;99938.56;4975755;28;947;-52
2024/03/01 02:37:18;;;;;;;;;;;;;;;4.26;100.00;99935.38;4974403;28;1940;-51
2024/03/01 02:39:45;;;;;;;;;;;;;;;4.26;100.00;99945.56;4975779;28;866;-53
2024/03/01 02:42:11;;;;;;;;;;;;;;;4.27;100.00;99944.41;4975645;28;854;-50
2024/03/01 02:44:38;;;;;;;;;;;;;;;4.27;100.00;99941.69;4975425;28;844;-50
2024/03/01 02:47:04;;;;;;;;;;;;;;;4.29;100.00;99942.13;4975605;28;960;-51
2024/03/01 02:49:33;;;;;;;;;;;;;;;4.26;100.00;99940.88;4975215;28;1282;-49
2024/03/01 02:52:00;;;;;;;;;;;;;;;4.29;100.00;99937.44;4975113;28;888;-50
2024/03/01 02:54:25;;;;;;;;;;;;;;;4.32;100.00;99937.88;4975222;28;878;-51
2024/03/01 02:56:52;;;;;;;;;;;;;;;4.32;100.00;99932.41;4974994;28;1979;-51
2024/03/01 02:59:18;;;;;;;;;;;;;;;4.34;100.00;99944.56;4975257;28;866;-51
2024/03/01 03:01:44;;;;;;;;;;;;;;;4.39;100.00;99929.81;4975131;28;882;-52
2024/03/01 03:04:12;;;;;;;;;;;;;;;4.41;100.00;99936.50;4975347;28;827;-50
2024/03/01 03:06:42;;;;;;;;;;;;;;;4.49;100.00;99932.00;4974846;28;895;-49
2024/03/01 03:12:14;;;;;;;;;;;;;;;4.59;100.00;99925.16;4974625;28;1181;-50
2024/03/01 03:14:41;;;;;;;;;;;;;;;4.67;100.00;99926.88;4957367;28;1332;-50
2024/03/01 03:17:07;;;;;;;;;;;;;;;4.72;100.00;99931.31;4974748;28;1890;-51
2024/03/01 03:19:34;;;;;;;;;;;;;;;4.74;100.00;99937.19;4974606;28;882;-49
2024/03/01 03:22:08;;;;;;;;;;;;;;;4.75;100.00;99945.03;4957359;28;1241;-49
2024/03/01 03:24:36;;;;;;;;;;;;;;;4.77;100.00;99940.00;4974669;28;990;-49
2024/03/01 03:27:02;;;;;;;;;;;;;;;4.75;100.00;99936.84;4974723;28;1170;-51
2024/03/01 03:29:30;;;;;;;;;;;;;;;4.73;100.00;99938.34;4974427;28;1434;-51
2024/03/01 03:31:57;;;;;;;;;;;;;;;4.68;100.00;99929.25;4957338;28;1212;-50
2024/03/01 03:34:23;;;;;;;;;;;;;;;4.66;100.00;99926.09;4957154;28;1425;-51
2024/03/01 03:36:50;;;;;;;;;;;;;;;4.68;100.00;99915.56;4974490;28;1954;-54
2024/03/01 03:39:17;;;;;;;;;;;;;;;4.72;100.00;99910.19;4974396;28;1208;-55
2024/03/01 03:41:43;;;;;;;;;;;;;;;4.74;100.00;99907.88;4957069;28;828;-53
2024/03/01 03:44:10;;;;;;;;;;;;;;;4.78;100.00;99897.78;4974235;28;832;-54
2024/03/01 03:46:37;;;;;;;;;;;;;;;4.79;100.00;99907.56;4974281;28;958;-53
2024/03/01 03:49:08;;;;;;;;;;;;;;;4.80;100.00;99902.88;4973726;28;1204;-54
2024/03/01 03:51:37;;;;;;;;;;;;;;;4.81;100.00;99910.75;4974461;28;895;-53
2024/03/01 03:54:06;;;;;;;;;;;;;;;4.83;100.00;99916.66;4974061;28;891;-50
2024/03/01 03:56:35;;;;;;;;;;;;;;;4.84;100.00;99917.44;4973898;28;1965;-50
2024/03/01 03:59:02;;;;;;;;;;;;;;;4.80;100.00;99916.56;4973939;28;835;-50
2024/03/01 04:01:30;;;;;;;;;;;;;;;4.79;100.00;99920.47;4973846;28;946;-52
2024/03/01 04:03:57;;;;;;;;;;;;;;;4.85;100.00;99927.25;4973830;28;906;-51
2024/03/01 04:06:25;;;;;;;;;;;;;;;4.91;100.00;99923.88;4973778;28;946;-51
2024/03/01 04:08:55;;;;;;;;;;;;;;;4.96;100.00;99936.47;4973713;28;842;-51
2024/03/01 04:11:24;;;;;;;;;;;;;;;4.97;100.00;99913.44;4973668;28;922;-50
2024/03/01 04:16:53;;;;;;;;;;;;;;;5.10;100.00;99930.50;4973443;28;1949;-49
2024/03/01 04:19:20;;;;;;;;;;;;;;;5.16;100.00;99931.75;4973463;28;923;-50
2024/03/01 04:21:47;;;;;;;;;;;;;;;5.25;100.00;99961.72;4973415;28;861;-50
2024/03/01 04:24:14;;;;;;;;;;;;;;;5.31;100.00;99972.00;4973621;28;839;-51
2024/03/01 04:26:41;;;;;;;;;;;;;;;5.35;100.00;99969.31;4973369;28;924;-50
2024/03/01 04:29:08;;;;;;;;;;;;;;;5.40;100.00;99977.25;4956151;28;1185;-51
2024/03/01 04:31:35;;;;;;;;;;;;;;;5.43;100.00;99971.03;4973243;28;938;-53
2024/03/01 04:34:05;;;;;;;;;;;;;;;5.47;100.00;99960.16;4956085;28;1316;-49
2024/03/01 04:36:32;;;;;;;;;;;;;;;5.50;100.00;99957.47;4973383;28;1882;-51
2024/03/01 04:39:00;;;;;;;;;;;;;;;5.54;100.00;99954.78;4973356;28;871;-49
2024/03/01 04:41:27;;;;;;;;;;;;;;;5.58;100.00;99960.34;4973333;28;816;-50
2024/03/01 04:43:54;;;;;;;;;;;;;;;5.57;100.00;99947.78;4973522;28;827;-50
2024/03/01 04:46:20;;;;;;;;;;;;;;;5.56;100.00;99951.69;4973386;28;959;-50
2024/03/01 04:48:57;;;;;;;;;;;;;;;5.59;100.00;99964.66;4973005;28;1308;-49
2024/03/01 04:51:49;;;;;;;;;;;;;;;5.62;100.00;99966.69;4973478;28;1270;-50
2024/03/01 04:54:17;;;;;;;;;;;;;;;5.63;100.00;99966.31;4972996;28;887;-51
2024/03/01 04:56:44;;;;;;;;;;;;;;;5.61;100.00;99970.56;4955693;28;1975;-50
2024/03/01 04:59:10;;;;;;;;;;;;;;;5.63;100.00;99963.59;4972590;28;911;-49
2024/03/01 05:01:39;;;;;;;;;;;;;;;5.63;100.00;99960.03;4973028;28;878;-50
2024/03/01 05:04:08;;;;;;;;;;;;;;;5.64;100.00;99967.09;4972967;28;1015;-50
2024/03/01 05:06:36;;;;;;;;;;;;;;;5.69;100.00;99970.31;4955706;28;802;-50
2024/03/01 05:09:03;;;;;;;;;;;;;;;5.75;100.00;99989.22;4973216;28;939;-49
2024/03/01 05:11:35;;;;;;;;;;;;;;;5.73;100.00;99987.63;4973196;28;938;-49
2024/03/01 05:14:03;;;;;;;;;;;;;;;5.76;100.00;99985.31;4972981;28;903;-50
2024/03/01 05:16:30;;;;;;;;;;;;;;;5.78;100.00;100000.25;4973059;28;1944;-49
2024/03/01 05:18:57;;;;;;;;;;;;;;;5.80;100.00;100005.38;4972927;28;863;-50
2024/03/01 05:21:24;;;;;;;;;;;;;;;5.82;100.00;100003.06;4955465;28;2307;-49
2024/03/01 05:23:51;;;;;;;;;;;;;;;5.86;100.00;99996.47;4973157;28;835;-51
2024/03/01 05:26:18;;;;;;;;;;;;;;;5.94;100.00;100000.16;4972850;28;851;-49
2024/03/01 05:28:45;;;;;;;;;;;;;;;6.00;100.00;100008.91;4972722;28;908;-50
2024/03/01 05:31:11;;;;;;;;;;;;;;;6.00;100.00;99998.72;4972860;28;850;-51
2024/03/01 05:33:39;;;;;;;;;;;;;;;6.02;100.00;100012.06;4972749;28;927;-49
2024/03/01 05:36:05;;;;;;;;;;;;;;;6.08;100.00;100007.84;4972768;28;2400;-50
2024/03/01 05:38:35;;;;;;;;;;;;;;;6.10;100.00;99991.81;4972839;28;950;-51
2024/03/01 05:41:02;;;;;;;;;;;;;;;6.11;100.00;100002.41;4972769;28;891;-49
2024/03/01 05:43:29;;;;;;;;;;;;;;;6.05;100.00;99987.41;4972557;28;839;-49
2024/03/01 05:45:56;;;;;;;;;;;;;;;5.97;100.00;99982.19;4972698;28;1013;-50
2024/03/01 05:48:23;;;;;;;;;;;;;;;5.96;100.00;99986.09;4955035;28;1227;-50
2024/03/01 05:50:50;;;;;;;;;;;;;;;5.99;100.00;99985.34;4972459;28;927;-49
2024/03/01 05:53:16;;;;;;;;;;;;;;;6.04;100.00;99982.28;4955250;28;1183;-49
2024/03/01 05:55:43;;;;;;;;;;;;;;;6.05;100.00;99987.41;4972536;28;840;-49
2024/03/01 05:58:10;;;;;;;;;;;;;;;6.05;100.00;99979.19;4972488;28;1915;-50
2024/03/01 06:00:39;;;;;;;;;;;;;;;6.07;100.00;99984.31;4972489;28;935;-49
2024/03/01 06:03:06;;;;;;;;;;;;;;;6.10;100.00;99981.63;4972442;28;891;-51
2024/03/01 06:05:32;;;;;;;;;;;;;;;6.13;100.00;99977.34;4972518;28;969;-50
2024/03/01 06:07:59;;;;;;;;;;;;;;;6.13;100.00;99966.38;4972506;28;835;-53
2024/03/01 06:10:26;;;;;;;;;;;;;;;6.20;100.00;99961.00;4972334;28;879;-49
2024/03/01 06:12:52;;;;;;;;;;;;;;;6.19;100.00;99959.41;4974795;28;954;-49
2024/03/01 06:15:19;;;;;;;;;;;;;;;6.24;100.00;99956.34;4975893;28;883;-50
2024/03/01 06:17:46;;;;;;;;;;;;;;;6.34;100.00;99949.44;4975909;28;1957;-49
2024/03/01 06:20:12;;;;;;;;;;;;;;;6.30;100.00;99946.63;4976061;28;819;-49
2024/03/01 06:22:40;;;;;;;;;;;;;;;6.38;100.00;99946.72;4975536;28;936;-49
2024/03/01 06:25:07;;;;;;;;;;;;;;;6.43;100.00;99940.94;4975718;28;863;-49
2024/03/01 06:27:33;;;;;;;;;;;;;;;6.43;100.00;99943.69;4975640;28;824;-50
2024/03/01 06:30:00;;;;;;;;;;;;;;;6.46;100.00;99949.22;4975488;28;970;-50
2024/03/01 06:32:26;;;;;;;;;;;;;;;6.42;100.00;99950.31;4975771;28;811;-50
2024/03/01 06:34:53;;;;;;;;;;;;;;;6.35;100.00;99937.28;4975593;28;807;-50
2024/03/01 06:37:19;;;;;;;;;;;;;;;6.38;100.00;99935.75;4975437;28;1882;-49
2024/03/01 06:39:47;;;;;;;;;;;;;;;6.38;100.00;99947.53;4958057;28;1660;-50
2024/03/01 06:42:14;;;;;;;;;;;;;;;6.47;100.00;99953.56;4975351;28;928;-49
2024/03/01 06:44:40;;;;;;;;;;;;;;;6.53;100.00;99943.03;4975245;28;943;-50
2024/03/01 06:47:07;;;;;;;;;;;;;;;6.61;100.00;99939.22;4975688;28;975;-50
2024/03/01 06:49:33;;;;;;;;;;;;;;;6.69;100.00;99949.13;4975015;28;1254;-52
2024/03/01 06:52:00;;;;;;;;;;;;;;;6.81;100.00;99942.63;4975140;28;927;-50
2024/03/01 06:54:26;;;;;;;;;;;;;;;6.79;100.00;99933.19;4975183;28;878;-50
2024/03/01 06:56:53;;;;;;;;;;;;;;;6.78;100.00;99924.13;4974956;28;1971;-51
2024/03/01 06:59:19;;;;;;;;;;;;;;;6.90;100.00;99918.38;4975065;28;824;-49
2024/03/01 07:01:45;;;;;;;;;;;;;;;7.06;100.00;99915.44;4975008;28;823;-49
2024/03/01 07:04:12;;;;;;;;;;;;;;;7.25;100.00;99910.91;4974941;28;1081;-50
2024/03/01 07:06:38;;;;;;;;;;;;;;;7.39;100.00;99913.03;4974831;28;958;-51
2024/03/01 07:09:04;;;;;;;;;;;;;;;7.51;100.00;99912.72;4974925;28;912;-50
2024/03/01 07:11:31;;;;;;;;;;;;;;;7.61;100.00;99911.25;4957524;28;1264;-49
2024/03/01 07:13:58;;;;;;;;;;;;;;;7.76;100.00;99901.94;4974696;28;950;-49
2024/03/01 07:16:24;;;;;;;;;;;;;;;7.82;100.00;99894.13;4974692;28;1890;-49
2024/03/01 07:18:51;;;;;;;;;;;;;;;7.84;100.00;99892.56;4974813;28;906;-50
2024/03/01 07:21:17;;;;;;;;;;;;;;;7.92;100.00;99893.44;4974805;28;895;-51
2024/03/01 07:23:43;;;;;;;;;;;;;;;8.02;100.00;99900.94;4974258;28;820;-50
2024/03/01 07:26:10;;;;;;;;;;;;;;;8.04;100.00;99900.56;4974875;28;859;-50
2024/03/01 07:28:37;;;;;;;;;;;;;;;8.06;100.00;99896.25;4974369;28;852;-50
2024/03/01 07:31:04;;;;;;;;;;;;;;;7.95;100.00;99898.94;4974871;28;824;-50
2024/03/01 07:33:31;;;;;;;;;;;;;;;7.95;100.00;99909.94;4974297;28;924;-50
2024/03/01 07:35:58;;;;;;;;;;;;;;;8.05;100.00;99905.72;4974248;28;1898;-49
2024/03/01 07:38:25;;;;;;;;;;;;;;;8.24;100.00;99901.91;4974195;28;895;-49
2024/03/01 07:40:51;;;;;;;;;;;;;;;8.37;100.00;99900.41;4957074;28;1757;-50
2024/03/01 07:43:19;;;;;;;;;;;;;;;8.56;100.00;99893.06;4974135;28;859;-49
2024/03/01 07:45:45;;;;;;;;;;;;;;;8.79;100.00;99896.31;4956843;28;1227;-49
2024/03/01 07:48:11;;;;;;;;;;;;;;;8.77;100.00;99901.41;4973953;28;1228;-48
2024/03/01 07:50:38;;;;;;;;;;;;;;;8.99;100.00;99887.69;4974101;28;890;-49
2024/03/01 07:53:04;;;;;;;;;;;;;;;9.24;100.00;99881.44;4974126;28;819;-52
2024/03/01 07:55:30;;;;;;;;;;;;;;;9.38;100.00;99875.94;4974314;28;850;-50
2024/03/01 07:57:57;;;;;;;;;;;;;;;9.63;100.00;99872.44;4974080;28;1902;-50
2024/03/01 08:00:24;;;;;;;;;;;;;;;9.76;100.00;99874.38;4974058;28;875;-49
2024/03/01 08:02:55;;;;;;;;;;;;;;;9.99;100.00;99859.38;4974034;28;875;-49
2024/03/01 08:05:21;;;;;;;;;;;;;;;10.05;100.00;99868.03;4973953;28;879;-49
2024/03/01 08:07:48;;;;;;;;;;;;;;;10.11;100.00;99850.66;4973748;28;875;-49
2024/03/01 08:10:14;;;;;;;;;;;;;;;10.20;100.00;99847.50;4973933;28;858;-48
2024/03/01 08:12:41;;;;;;;;;;;;;;;10.22;100.00;99843.16;4973533;28;874;-49
2024/03/01 08:15:10;;;;;;;;;;;;;;;10.36;100.00;99838.78;4973677;28;883;-50
2024/03/01 08:17:37;;;;;;;;;;;;;;;10.69;100.00;99836.66;4973602;28;1938;-49
2024/03/01 08:20:11;;;;;;;;;;;;;;;10.92;100.00;99836.94;4973543;28;894;-51
2024/03/01 08:22:38;;;;;;;;;;;;;;;11.11;100.00;99843.94;4956350;28;915;-50
2024/03/01 08:25:06;;;;;;;;;;;;;;;11.03;100.00;99857.03;4973494;28;811;-49
2024/03/01 08:27:33;;;;;;;;;;;;;;;10.73;100.00;99870.63;4973405;28;954;-49
2024/03/01 08:30:01;;;;;;;;;;;;;;;10.65;100.00;99880.94;4973406;28;858;-49
2024/03/01 08:32:35;;;;;;;;;;;;;;;11.08;100.00;99880.72;4973405;28;879;-49
2024/03/01 08:35:02;;;;;;;;;;;;;;;10.89;100.00;99881.22;4973113;28;856;-49
2024/03/01 08:37:30;;;;;;;;;;;;;;;10.77;100.00;99894.28;4973644;28;1943;-49
2024/03/01 08:39:57;;;;;;;;;;;;;;;10.63;100.00;99894.38;4973539;28;1183;-48
2024/03/01 08:42:25;;;;;;;;;;;;;;;10.60;100.00;99893.19;4973450;28;1234;-48
2024/03/01 08:44:59;;;;;;;;;;;;;;;10.61;100.00;99886.47;4973299;28;867;-50
2024/03/01 08:47:29;;;;;;;;;;;;;;;10.86;100.00;99888.34;4973595;28;970;-49
2024/03/01 08:49:55;;;;;;;;;;;;;;;10.94;100.00;99906.47;4972919;28;1405;-50
2024/03/01 08:52:31;;;;;;;;;;;;;;;10.77;100.00;99912.88;4973157;28;788;-49
2024/03/01 08:55:21;;;;;;;;;;;;;;;10.78;100.00;99914.44;4973070;28;912;-46
2024/03/01 08:57:48;;;;;;;;;;;;;;;11.02;100.00;99930.13;4973165;28;1911;-47
2024/03/01 09:00:27;;;;;;;;;;;;;;;11.21;100.00;99926.09;4956047;28;828;-47
2024/03/01 09:02:53;;;;;;;;;;;;;;;11.37;100.00;99909.00;4973079;28;831;-46
2024/03/01 09:05:22;;;;;;;;;;;;;;;11.61;100.00;99912.78;4972912;28;832;-47
2024/03/01 09:07:50;;;;;;;;;;;;;;;11.45;100.00;99913.28;4973004;28;1032;-49
2024/03/01 09:10:22;;;;;;;;;;;;;;;11.37;100.00;99906.25;4972934;28;875;-50
2024/03/01 09:12:48;;;;;;;;;;;;;;;11.56;100.00;99907.66;4972983;28;834;-49
2024/03/01 09:15:16;;;;;;;;;;;;;;;11.78;100.00;99904.75;4972797;28;950;-48
2024/03/01 09:46:32;;;;;;;;;;;;;;;11.94;100.00;99888.41;5837805;22;1702;-61
2024/03/01 09:49:09;;;;;;;;;;;;;;;11.74;100.00;99896.47;4976377;28;826;-60
